Bessie Ellen — ZITL7 — position and weather

sailwx.info

Track history (hours):
 
Tides and Currents Weather Stations Pressure Air Temp Water Temp Dewpoint Dewpoint Depression Visibility Wind Speed Wind Dir Waves Ship Positions

Bessie Ellen

Ship's website: http://bessie-ellen.com/blog/

Last reported at 2019-Sep-03 16:55 UTC. Time now 2019-Oct-22 23:54 UTC.
Position N 52°58' W 005°60'.
Warning: this ship's position is 49 days out of date.

Length 28 m.

Type: Sailing vessel. MMSI: 235005952.

Date/timePositionNaut miles runAvg speedWind from/ knotsBaromVisibWave heightAir tempDewpointWater temp
2019-Sep-03 16:55N 52°58' W 005°60'2 4.0
2019-Sep-03 16:28N 52°59' W 006°02'0 0.0
2019-Sep-03 16:00N 52°59' W 006°02'0 0.0
2019-Sep-03 15:30N 52°59' W 006°02'0 0.0
2019-Sep-03 15:01N 52°59' W 006°02'0 0.0
2019-Sep-03 14:30N 52°59' W 006°02'0 0.0
2019-Sep-03 14:00N 52°59' W 006°02'0 0.0
2019-Sep-03 13:27N 52°59' W 006°02'0 0.0
2019-Sep-03 12:56N 52°59' W 006°02'0 0.0
2019-Sep-03 12:29N 52°59' W 006°02'0 0.0
2019-Sep-03 12:00N 52°59' W 006°02'0 0.0
2019-Sep-03 11:30N 52°59' W 006°02'0 0.0
2019-Sep-03 10:59N 52°59' W 006°02'0 0.0
2019-Sep-03 10:30N 52°59' W 006°02'0 0.0
2019-Sep-03 10:00N 52°59' W 006°02'0 0.0
2019-Sep-03 09:31N 52°59' W 006°02'0 0.0
2019-Sep-03 09:01N 52°59' W 006°02'0 0.0
2019-Sep-03 08:30N 52°59' W 006°02'0 0.0
2019-Sep-03 07:58N 52°59' W 006°02'0 0.0
2019-Sep-03 07:30N 52°59' W 006°02'0 0.0
2019-Sep-03 06:59N 52°59' W 006°02'0 0.0
2019-Sep-03 06:26N 52°59' W 006°02'0 0.0
2019-Sep-03 06:00N 52°59' W 006°02'0 0.0
2019-Sep-03 05:30N 52°59' W 006°02'0 0.0
2019-Sep-03 05:00N 52°59' W 006°02'0 0.0
2019-Sep-03 04:30N 52°59' W 006°02'0 0.0
2019-Sep-03 04:00N 52°59' W 006°02'0 0.0
2019-Sep-03 03:29N 52°59' W 006°02'0 0.0
2019-Sep-03 02:59N 52°59' W 006°02'0 0.0
2019-Sep-03 02:28N 52°59' W 006°02'0 0.0
2019-Sep-03 02:00N 52°59' W 006°02'0 0.0
2019-Sep-03 01:30N 52°59' W 006°02'0 0.0
2019-Sep-03 00:58N 52°59' W 006°02'0 0.0
2019-Sep-03 00:29N 52°59' W 006°02'0 0.0
2019-Sep-02 23:59N 52°59' W 006°02'0 0.0
2019-Sep-02 23:30N 52°59' W 006°02'0 0.0
2019-Sep-02 22:56N 52°59' W 006°02'0 0.0
2019-Sep-02 22:22N 52°59' W 006°02'0 0.0
2019-Sep-02 22:00N 52°59' W 006°02'0 0.0
2019-Sep-02 21:30N 52°59' W 006°02'0 0.1
2019-Sep-02 21:00N 52°59' W 006°02'0 0.0
2019-Sep-02 20:30N 52°59' W 006°02'1 2.9
2019-Sep-02 20:01N 53°01' W 006°01'3 5.1
2019-Sep-02 19:30N 53°03' W 006°00'97 5.0
2019-Sep-01 23:57N 54°37' W 005°18'4 8.6
2019-Sep-01 23:29N 54°41' W 005°19'5 9.3
2019-Sep-01 22:55N 54°46' W 005°23'4 9.8
2019-Sep-01 22:29N 54°49' W 005°27'  
Track history (hours):
 
Tides and Currents Weather Stations Pressure Air Temp Water Temp Dewpoint Dewpoint Depression Visibility Wind Speed Wind Dir Waves Ship Positions

Bessie Ellen

Ship's website: http://bessie-ellen.com/blog/

Last reported at 2019-Sep-03 16:55 UTC. Time now 2019-Oct-22 23:54 UTC.
Position N 52°58' W 005°60'.
Warning: this ship's position is 49 days out of date.

Length 28 m.

Type: Sailing vessel. MMSI: 235005952.

Date/timePositionNaut miles runAvg speedWind from/ knotsBaromVisibWave heightAir tempDewpointWater temp
2019-Sep-03 16:55N 52°58' W 005°60'2 4.0
2019-Sep-03 16:28N 52°59' W 006°02'0 0.0
2019-Sep-03 16:00N 52°59' W 006°02'0 0.0
2019-Sep-03 15:30N 52°59' W 006°02'0 0.0
2019-Sep-03 15:01N 52°59' W 006°02'0 0.0
2019-Sep-03 14:30N 52°59' W 006°02'0 0.0
2019-Sep-03 14:00N 52°59' W 006°02'0 0.0
2019-Sep-03 13:27N 52°59' W 006°02'0 0.0
2019-Sep-03 12:56N 52°59' W 006°02'0 0.0
2019-Sep-03 12:29N 52°59' W 006°02'0 0.0
2019-Sep-03 12:00N 52°59' W 006°02'0 0.0
2019-Sep-03 11:30N 52°59' W 006°02'0 0.0
2019-Sep-03 10:59N 52°59' W 006°02'0 0.0
2019-Sep-03 10:30N 52°59' W 006°02'0 0.0
2019-Sep-03 10:00N 52°59' W 006°02'0 0.0
2019-Sep-03 09:31N 52°59' W 006°02'0 0.0
2019-Sep-03 09:01N 52°59' W 006°02'0 0.0
2019-Sep-03 08:30N 52°59' W 006°02'0 0.0
2019-Sep-03 07:58N 52°59' W 006°02'0 0.0
2019-Sep-03 07:30N 52°59' W 006°02'0 0.0
2019-Sep-03 06:59N 52°59' W 006°02'0 0.0
2019-Sep-03 06:26N 52°59' W 006°02'0 0.0
2019-Sep-03 06:00N 52°59' W 006°02'0 0.0
2019-Sep-03 05:30N 52°59' W 006°02'0 0.0
2019-Sep-03 05:00N 52°59' W 006°02'0 0.0
2019-Sep-03 04:30N 52°59' W 006°02'0 0.0
2019-Sep-03 04:00N 52°59' W 006°02'0 0.0
2019-Sep-03 03:29N 52°59' W 006°02'0 0.0
2019-Sep-03 02:59N 52°59' W 006°02'0 0.0
2019-Sep-03 02:28N 52°59' W 006°02'0 0.0
2019-Sep-03 02:00N 52°59' W 006°02'0 0.0
2019-Sep-03 01:30N 52°59' W 006°02'0 0.0
2019-Sep-03 00:58N 52°59' W 006°02'0 0.0
2019-Sep-03 00:29N 52°59' W 006°02'0 0.0
2019-Sep-02 23:59N 52°59' W 006°02'0 0.0
2019-Sep-02 23:30N 52°59' W 006°02'0 0.0
2019-Sep-02 22:56N 52°59' W 006°02'0 0.0
2019-Sep-02 22:22N 52°59' W 006°02'0 0.0
2019-Sep-02 22:00N 52°59' W 006°02'0 0.0
2019-Sep-02 21:30N 52°59' W 006°02'0 0.1
2019-Sep-02 21:00N 52°59' W 006°02'0 0.0
2019-Sep-02 20:30N 52°59' W 006°02'1 2.9
2019-Sep-02 20:01N 53°01' W 006°01'3 5.1
2019-Sep-02 19:30N 53°03' W 006°00'97 5.0
2019-Sep-01 23:57N 54°37' W 005°18'4 8.6
2019-Sep-01 23:29N 54°41' W 005°19'5 9.3
2019-Sep-01 22:55N 54°46' W 005°23'4 9.8
2019-Sep-01 22:29N 54°49' W 005°27'  

Dump ship's entire track history